sensor_id;sensor_type;location;lat;lon;timestamp;pressure;altitude;pressure_sealevel;temperature;humidity
20003;BME280;10162;41.600;23.806;2023-12-07T00:01:28;94745.16;;;4.66;100.00
20003;BME280;10162;41.600;23.806;2023-12-07T00:04:17;94744.22;;;4.50;100.00
20003;BME280;10162;41.600;23.806;2023-12-07T00:07:22;94785.94;;;4.64;100.00
20003;BME280;10162;41.600;23.806;2023-12-07T00:10:15;94774.84;;;4.39;100.00
20003;BME280;10162;41.600;23.806;2023-12-07T00:13:02;94736.28;;;3.97;100.00
20003;BME280;10162;41.600;23.806;2023-12-07T00:15:36;94741.59;;;4.11;100.00
20003;BME280;10162;41.600;23.806;2023-12-07T00:18:02;94764.53;;;4.23;100.00
20003;BME280;10162;41.600;23.806;2023-12-07T00:20:29;94758.06;;;4.10;100.00
20003;BME280;10162;41.600;23.806;2023-12-07T00:22:56;94761.31;;;4.04;100.00
20003;BME280;10162;41.600;23.806;2023-12-07T00:25:22;94757.28;;;4.10;100.00
20003;BME280;10162;41.600;23.806;2023-12-07T00:27:52;94782.13;;;4.43;100.00
20003;BME280;10162;41.600;23.806;2023-12-07T00:30:46;94734.94;;;4.25;100.00
20003;BME280;10162;41.600;23.806;2023-12-07T00:34:06;94774.72;;;4.32;100.00
20003;BME280;10162;41.600;23.806;2023-12-07T00:36:55;94783.53;;;4.54;100.00
20003;BME280;10162;41.600;23.806;2023-12-07T00:39:41;94791.47;;;4.44;100.00
20003;BME280;10162;41.600;23.806;2023-12-07T00:42:42;94780.00;;;4.47;100.00
20003;BME280;10162;41.600;23.806;2023-12-07T00:45:20;94776.22;;;4.66;100.00
20003;BME280;10162;41.600;23.806;2023-12-07T00:48:07;94778.28;;;4.78;100.00
20003;BME280;10162;41.600;23.806;2023-12-07T00:50:36;94808.69;;;4.84;100.00
20003;BME280;10162;41.600;23.806;2023-12-07T00:53:05;94786.69;;;4.80;100.00
20003;BME280;10162;41.600;23.806;2023-12-07T00:55:30;94786.63;;;4.96;100.00
20003;BME280;10162;41.600;23.806;2023-12-07T00:57:57;94785.22;;;4.86;100.00
20003;BME280;10162;41.600;23.806;2023-12-07T01:00:23;94754.19;;;4.70;100.00
20003;BME280;10162;41.600;23.806;2023-12-07T01:02:53;94784.16;;;5.03;100.00
20003;BME280;10162;41.600;23.806;2023-12-07T01:05:18;94774.63;;;4.95;100.00
20003;BME280;10162;41.600;23.806;2023-12-07T01:07:44;94801.84;;;4.99;100.00
20003;BME280;10162;41.600;23.806;2023-12-07T01:10:10;94781.06;;;5.08;100.00
20003;BME280;10162;41.600;23.806;2023-12-07T01:12:45;94817.00;;;5.41;100.00
20003;BME280;10162;41.600;23.806;2023-12-07T01:15:12;94819.13;;;5.38;100.00
20003;BME280;10162;41.600;23.806;2023-12-07T01:17:38;94799.53;;;5.05;100.00
20003;BME280;10162;41.600;23.806;2023-12-07T01:20:13;94810.06;;;5.03;100.00
20003;BME280;10162;41.600;23.806;2023-12-07T01:26:27;94797.56;;;5.15;100.00
20003;BME280;10162;41.600;23.806;2023-12-07T01:28:54;94769.22;;;5.13;100.00
20003;BME280;10162;41.600;23.806;2023-12-07T01:31:20;94787.19;;;5.15;100.00
20003;BME280;10162;41.600;23.806;2023-12-07T01:33:54;94792.03;;;5.18;100.00
20003;BME280;10162;41.600;23.806;2023-12-07T01:36:33;94809.81;;;5.29;100.00
20003;BME280;10162;41.600;23.806;2023-12-07T01:39:14;94750.22;;;5.21;100.00
20003;BME280;10162;41.600;23.806;2023-12-07T01:41:41;94804.06;;;5.64;100.00
20003;BME280;10162;41.600;23.806;2023-12-07T01:44:07;94758.41;;;5.32;100.00
20003;BME280;10162;41.600;23.806;2023-12-07T01:46:34;94791.84;;;5.50;100.00
20003;BME280;10162;41.600;23.806;2023-12-07T01:49:00;94802.09;;;5.44;100.00
20003;BME280;10162;41.600;23.806;2023-12-07T01:51:33;94767.28;;;5.15;100.00
20003;BME280;10162;41.600;23.806;2023-12-07T01:54:06;94769.06;;;5.37;100.00
20003;BME280;10162;41.600;23.806;2023-12-07T01:56:33;94764.75;;;5.30;100.00
20003;BME280;10162;41.600;23.806;2023-12-07T01:58:59;94767.75;;;5.41;100.00
20003;BME280;10162;41.600;23.806;2023-12-07T02:01:24;94784.72;;;5.52;100.00
20003;BME280;10162;41.600;23.806;2023-12-07T02:03:51;94802.00;;;5.60;100.00
20003;BME280;10162;41.600;23.806;2023-12-07T02:06:17;94780.78;;;5.56;100.00
20003;BME280;10162;41.600;23.806;2023-12-07T02:08:43;94723.00;;;5.25;100.00
20003;BME280;10162;41.600;23.806;2023-12-07T02:11:09;94769.94;;;5.53;100.00
20003;BME280;10162;41.600;23.806;2023-12-07T02:13:52;94756.41;;;5.43;100.00
20003;BME280;10162;41.600;23.806;2023-12-07T02:16:27;94766.84;;;5.34;100.00
20003;BME280;10162;41.600;23.806;2023-12-07T02:19:07;94765.25;;;5.25;100.00
20003;BME280;10162;41.600;23.806;2023-12-07T02:21:51;94778.16;;;5.11;100.00
20003;BME280;10162;41.600;23.806;2023-12-07T02:24:33;94785.56;;;5.14;100.00
20003;BME280;10162;41.600;23.806;2023-12-07T02:27:02;94731.59;;;4.94;100.00
20003;BME280;10162;41.600;23.806;2023-12-07T02:29:28;94787.56;;;5.34;100.00
20003;BME280;10162;41.600;23.806;2023-12-07T02:31:59;94777.66;;;5.38;100.00
20003;BME280;10162;41.600;23.806;2023-12-07T02:34:25;94768.44;;;5.35;100.00
20003;BME280;10162;41.600;23.806;2023-12-07T02:37:11;94781.28;;;5.29;100.00
20003;BME280;10162;41.600;23.806;2023-12-07T02:39:56;94737.59;;;4.95;100.00
20003;BME280;10162;41.600;23.806;2023-12-07T02:42:32;94765.72;;;4.98;100.00
20003;BME280;10162;41.600;23.806;2023-12-07T02:45:05;94747.91;;;5.03;100.00
20003;BME280;10162;41.600;23.806;2023-12-07T02:47:31;94741.44;;;4.99;100.00
20003;BME280;10162;41.600;23.806;2023-12-07T02:50:18;94758.41;;;5.02;100.00
20003;BME280;10162;41.600;23.806;2023-12-07T02:53:01;94741.28;;;5.01;100.00
20003;BME280;10162;41.600;23.806;2023-12-07T02:55:53;94764.91;;;5.06;100.00
20003;BME280;10162;41.600;23.806;2023-12-07T02:58:20;94735.75;;;5.04;100.00
20003;BME280;10162;41.600;23.806;2023-12-07T03:00:45;94733.94;;;5.12;100.00
20003;BME280;10162;41.600;23.806;2023-12-07T03:03:12;94729.38;;;5.14;100.00
20003;BME280;10162;41.600;23.806;2023-12-07T03:05:38;94750.34;;;5.27;100.00
20003;BME280;10162;41.600;23.806;2023-12-07T03:08:04;94715.13;;;4.87;100.00
20003;BME280;10162;41.600;23.806;2023-12-07T03:10:42;94750.78;;;5.08;100.00
20003;BME280;10162;41.600;23.806;2023-12-07T03:13:11;94725.38;;;5.04;100.00
20003;BME280;10162;41.600;23.806;2023-12-07T03:15:47;94742.72;;;5.34;100.00
20003;BME280;10162;41.600;23.806;2023-12-07T03:18:12;94764.53;;;5.39;100.00
20003;BME280;10162;41.600;23.806;2023-12-07T03:20:39;94756.59;;;5.41;100.00
20003;BME280;10162;41.600;23.806;2023-12-07T03:23:09;94749.44;;;5.43;100.00
20003;BME280;10162;41.600;23.806;2023-12-07T03:25:36;94740.25;;;5.40;100.00
20003;BME280;10162;41.600;23.806;2023-12-07T03:28:01;94743.25;;;5.52;100.00
20003;BME280;10162;41.600;23.806;2023-12-07T03:30:28;94738.66;;;5.54;100.00
20003;BME280;10162;41.600;23.806;2023-12-07T03:33:00;94740.66;;;5.52;100.00
20003;BME280;10162;41.600;23.806;2023-12-07T03:35:27;94748.63;;;5.65;100.00
20003;BME280;10162;41.600;23.806;2023-12-07T03:37:53;94751.41;;;5.64;100.00
20003;BME280;10162;41.600;23.806;2023-12-07T03:40:18;94765.63;;;5.45;100.00
20003;BME280;10162;41.600;23.806;2023-12-07T03:42:53;94776.19;;;5.44;100.00
20003;BME280;10162;41.600;23.806;2023-12-07T03:45:19;94763.31;;;5.27;100.00
20003;BME280;10162;41.600;23.806;2023-12-07T03:47:45;94780.66;;;5.50;100.00
20003;BME280;10162;41.600;23.806;2023-12-07T03:50:14;94734.16;;;5.25;100.00
20003;BME280;10162;41.600;23.806;2023-12-07T03:52:41;94756.09;;;5.46;100.00
20003;BME280;10162;41.600;23.806;2023-12-07T03:55:07;94763.03;;;5.45;100.00
20003;BME280;10162;41.600;23.806;2023-12-07T03:57:33;94768.28;;;5.60;100.00
20003;BME280;10162;41.600;23.806;2023-12-07T03:59:58;94781.03;;;5.47;100.00
20003;BME280;10162;41.600;23.806;2023-12-07T04:02:32;94759.19;;;5.41;100.00
20003;BME280;10162;41.600;23.806;2023-12-07T04:04:58;94747.13;;;5.25;100.00
20003;BME280;10162;41.600;23.806;2023-12-07T04:07:29;94756.19;;;5.29;100.00
20003;BME280;10162;41.600;23.806;2023-12-07T04:10:08;94786.88;;;5.18;100.00
20003;BME280;10162;41.600;23.806;2023-12-07T04:13:13;94781.72;;;5.40;100.00
20003;BME280;10162;41.600;23.806;2023-12-07T04:16:18;94759.63;;;5.22;100.00
20003;BME280;10162;41.600;23.806;2023-12-07T04:18:45;94744.88;;;5.22;100.00
20003;BME280;10162;41.600;23.806;2023-12-07T04:21:11;94737.91;;;5.23;100.00
20003;BME280;10162;41.600;23.806;2023-12-07T04:23:38;94750.31;;;5.05;100.00
20003;BME280;10162;41.600;23.806;2023-12-07T04:26:04;94757.22;;;4.81;100.00
20003;BME280;10162;41.600;23.806;2023-12-07T04:28:30;94794.91;;;4.92;100.00
20003;BME280;10162;41.600;23.806;2023-12-07T04:30:59;94761.09;;;4.85;100.00
20003;BME280;10162;41.600;23.806;2023-12-07T04:33:29;94758.78;;;4.90;100.00
20003;BME280;10162;41.600;23.806;2023-12-07T04:35:55;94777.06;;;4.97;100.00
20003;BME280;10162;41.600;23.806;2023-12-07T04:38:21;94770.47;;;4.86;100.00
20003;BME280;10162;41.600;23.806;2023-12-07T04:40:47;94764.66;;;4.84;100.00
20003;BME280;10162;41.600;23.806;2023-12-07T04:43:21;94783.06;;;4.97;100.00
20003;BME280;10162;41.600;23.806;2023-12-07T04:45:48;94795.69;;;5.01;100.00
20003;BME280;10162;41.600;23.806;2023-12-07T04:48:14;94767.50;;;4.67;100.00
20003;BME280;10162;41.600;23.806;2023-12-07T04:50:40;94812.06;;;4.93;100.00
20003;BME280;10162;41.600;23.806;2023-12-07T04:53:14;94809.16;;;4.88;100.00
20003;BME280;10162;41.600;23.806;2023-12-07T04:55:40;94781.84;;;4.77;100.00
20003;BME280;10162;41.600;23.806;2023-12-07T04:58:08;94807.19;;;4.98;100.00
20003;BME280;10162;41.600;23.806;2023-12-07T05:00:40;94788.66;;;4.70;100.00
20003;BME280;10162;41.600;23.806;2023-12-07T05:03:25;94797.75;;;4.66;100.00
20003;BME280;10162;41.600;23.806;2023-12-07T05:06:03;94791.94;;;4.56;100.00
20003;BME280;10162;41.600;23.806;2023-12-07T05:08:39;94814.75;;;4.61;100.00
20003;BME280;10162;41.600;23.806;2023-12-07T05:11:52;94809.03;;;4.73;100.00
20003;BME280;10162;41.600;23.806;2023-12-07T05:15:25;94782.03;;;4.68;100.00
20003;BME280;10162;41.600;23.806;2023-12-07T05:17:57;94776.69;;;4.69;100.00
20003;BME280;10162;41.600;23.806;2023-12-07T05:20:26;94792.31;;;4.92;100.00
20003;BME280;10162;41.600;23.806;2023-12-07T05:25:54;94784.13;;;5.11;100.00
20003;BME280;10162;41.600;23.806;2023-12-07T05:28:20;94766.69;;;4.97;100.00
20003;BME280;10162;41.600;23.806;2023-12-07T05:30:47;94808.25;;;5.12;100.00
20003;BME280;10162;41.600;23.806;2023-12-07T05:33:15;94786.25;;;5.08;100.00
20003;BME280;10162;41.600;23.806;2023-12-07T05:35:41;94816.78;;;5.28;100.00
20003;BME280;10162;41.600;23.806;2023-12-07T05:38:07;94812.97;;;5.08;100.00
20003;BME280;10162;41.600;23.806;2023-12-07T05:40:33;94814.44;;;5.03;100.00
20003;BME280;10162;41.600;23.806;2023-12-07T05:43:04;94835.16;;;5.11;100.00
20003;BME280;10162;41.600;23.806;2023-12-07T05:45:30;94820.16;;;4.90;100.00
20003;BME280;10162;41.600;23.806;2023-12-07T05:47:56;94843.28;;;4.99;100.00
20003;BME280;10162;41.600;23.806;2023-12-07T05:50:28;94847.13;;;5.12;100.00
20003;BME280;10162;41.600;23.806;2023-12-07T05:53:03;94805.72;;;4.48;100.00
20003;BME280;10162;41.600;23.806;2023-12-07T05:55:54;94827.56;;;4.46;100.00
20003;BME280;10162;41.600;23.806;2023-12-07T05:58:20;94822.66;;;4.67;100.00
20003;BME280;10162;41.600;23.806;2023-12-07T06:00:47;94799.69;;;4.72;100.00
20003;BME280;10162;41.600;23.806;2023-12-07T06:03:14;94857.13;;;5.23;100.00
20003;BME280;10162;41.600;23.806;2023-12-07T06:05:41;94842.75;;;5.43;100.00
20003;BME280;10162;41.600;23.806;2023-12-07T06:08:10;94815.47;;;4.93;100.00
20003;BME280;10162;41.600;23.806;2023-12-07T06:10:37;94838.06;;;4.44;100.00
20003;BME280;10162;41.600;23.806;2023-12-07T06:13:16;94803.66;;;4.20;100.00
20003;BME280;10162;41.600;23.806;2023-12-07T06:16:05;94849.84;;;4.71;100.00
20003;BME280;10162;41.600;23.806;2023-12-07T06:18:49;94845.66;;;5.09;100.00
20003;BME280;10162;41.600;23.806;2023-12-07T06:21:15;94841.81;;;5.05;100.00
20003;BME280;10162;41.600;23.806;2023-12-07T06:24:01;94851.69;;;5.02;100.00
20003;BME280;10162;41.600;23.806;2023-12-07T06:26:47;94849.88;;;4.55;100.00
20003;BME280;10162;41.600;23.806;2023-12-07T06:29:16;94782.00;;;4.12;100.00
20003;BME280;10162;41.600;23.806;2023-12-07T06:31:56;94841.13;;;4.64;100.00
20003;BME280;10162;41.600;23.806;2023-12-07T06:34:30;94843.97;;;4.85;100.00
20003;BME280;10162;41.600;23.806;2023-12-07T06:36:56;94826.50;;;4.87;100.00
20003;BME280;10162;41.600;23.806;2023-12-07T06:39:23;94865.47;;;4.94;100.00
20003;BME280;10162;41.600;23.806;2023-12-07T06:41:49;94852.34;;;5.04;100.00
20003;BME280;10162;41.600;23.806;2023-12-07T06:44:15;94811.88;;;4.55;100.00
20003;BME280;10162;41.600;23.806;2023-12-07T06:46:41;94849.88;;;4.55;100.00
20003;BME280;10162;41.600;23.806;2023-12-07T06:49:17;94876.06;;;4.68;100.00
20003;BME280;10162;41.600;23.806;2023-12-07T06:51:52;94841.00;;;4.41;100.00
20003;BME280;10162;41.600;23.806;2023-12-07T06:54:34;94815.44;;;4.30;100.00
20003;BME280;10162;41.600;23.806;2023-12-07T06:57:04;94872.84;;;4.66;100.00
20003;BME280;10162;41.600;23.806;2023-12-07T06:59:31;94866.66;;;4.83;100.00
20003;BME280;10162;41.600;23.806;2023-12-07T07:02:12;94875.50;;;4.97;100.00
20003;BME280;10162;41.600;23.806;2023-12-07T07:04:38;94875.28;;;5.15;100.00
20003;BME280;10162;41.600;23.806;2023-12-07T07:07:04;94842.63;;;4.97;100.00
20003;BME280;10162;41.600;23.806;2023-12-07T07:09:30;94852.88;;;4.83;100.00
20003;BME280;10162;41.600;23.806;2023-12-07T07:11:57;94860.09;;;5.04;100.00
20003;BME280;10162;41.600;23.806;2023-12-07T07:14:23;94848.03;;;4.88;100.00
20003;BME280;10162;41.600;23.806;2023-12-07T07:16:48;94844.72;;;5.02;100.00
20003;BME280;10162;41.600;23.806;2023-12-07T07:19:14;94856.16;;;5.24;100.00
20003;BME280;10162;41.600;23.806;2023-12-07T07:21:42;94878.25;;;5.43;100.00
20003;BME280;10162;41.600;23.806;2023-12-07T07:24:08;94818.25;;;5.23;100.00
20003;BME280;10162;41.600;23.806;2023-12-07T07:26:33;94870.47;;;5.43;100.00
20003;BME280;10162;41.600;23.806;2023-12-07T07:28:59;94851.81;;;5.16;100.00
20003;BME280;10162;41.600;23.806;2023-12-07T07:31:25;94859.03;;;5.29;100.00
20003;BME280;10162;41.600;23.806;2023-12-07T07:33:59;94824.69;;;5.27;100.00
20003;BME280;10162;41.600;23.806;2023-12-07T07:36:26;94853.56;;;5.55;100.00
20003;BME280;10162;41.600;23.806;2023-12-07T07:38:51;94858.06;;;5.61;100.00
20003;BME280;10162;41.600;23.806;2023-12-07T07:41:17;94837.75;;;5.11;100.00
20003;BME280;10162;41.600;23.806;2023-12-07T07:43:50;94827.59;;;5.01;100.00
20003;BME280;10162;41.600;23.806;2023-12-07T07:46:16;94856.16;;;5.24;100.00
20003;BME280;10162;41.600;23.806;2023-12-07T07:48:42;94852.16;;;5.05;100.00
20003;BME280;10162;41.600;23.806;2023-12-07T07:51:07;94867.63;;;5.29;100.00
20003;BME280;10162;41.600;23.806;2023-12-07T07:53:45;94857.59;;;5.26;100.00
20003;BME280;10162;41.600;23.806;2023-12-07T07:56:12;94864.00;;;5.47;100.00
20003;BME280;10162;41.600;23.806;2023-12-07T07:58:38;94854.06;;;5.50;100.00
20003;BME280;10162;41.600;23.806;2023-12-07T08:01:04;94861.94;;;5.96;100.00
20003;BME280;10162;41.600;23.806;2023-12-07T08:03:30;94870.84;;;6.16;100.00
20003;BME280;10162;41.600;23.806;2023-12-07T08:05:56;94882.56;;;6.35;100.00
20003;BME280;10162;41.600;23.806;2023-12-07T08:08:22;94880.81;;;6.50;100.00
20003;BME280;10162;41.600;23.806;2023-12-07T08:10:49;94866.03;;;6.50;100.00
20003;BME280;10162;41.600;23.806;2023-12-07T08:13:15;94878.69;;;6.53;100.00
20003;BME280;10162;41.600;23.806;2023-12-07T08:15:42;94861.31;;;6.54;100.00
20003;BME280;10162;41.600;23.806;2023-12-07T08:18:08;94874.31;;;6.69;100.00
20003;BME280;10162;41.600;23.806;2023-12-07T08:20:35;94859.41;;;6.48;100.00
20003;BME280;10162;41.600;23.806;2023-12-07T08:23:02;94885.63;;;6.90;100.00
20003;BME280;10162;41.600;23.806;2023-12-07T08:25:27;94882.75;;;6.85;100.00
20003;BME280;10162;41.600;23.806;2023-12-07T08:27:53;94878.75;;;6.83;100.00
20003;BME280;10162;41.600;23.806;2023-12-07T08:30:19;94837.72;;;6.41;100.00
20003;BME280;10162;41.600;23.806;2023-12-07T08:32:51;94896.50;;;6.94;100.00
20003;BME280;10162;41.600;23.806;2023-12-07T08:35:17;94882.38;;;6.74;100.00
20003;BME280;10162;41.600;23.806;2023-12-07T08:37:43;94880.44;;;6.76;100.00
20003;BME280;10162;41.600;23.806;2023-12-07T08:40:09;94894.88;;;7.07;100.00
20003;BME280;10162;41.600;23.806;2023-12-07T08:45:43;94878.53;;;6.70;100.00
20003;BME280;10162;41.600;23.806;2023-12-07T08:48:09;94885.78;;;6.74;100.00
20003;BME280;10162;41.600;23.806;2023-12-07T08:50:35;94864.66;;;6.77;100.00
20003;BME280;10162;41.600;23.806;2023-12-07T08:53:05;94865.66;;;6.76;100.00
20003;BME280;10162;41.600;23.806;2023-12-07T08:55:31;94880.69;;;6.66;100.00
20003;BME280;10162;41.600;23.806;2023-12-07T08:57:57;94887.69;;;6.95;100.00
20003;BME280;10162;41.600;23.806;2023-12-07T09:00:23;94863.50;;;6.94;100.00
20003;BME280;10162;41.600;23.806;2023-12-07T09:02:52;94888.25;;;7.05;100.00
20003;BME280;10162;41.600;23.806;2023-12-07T09:05:18;94869.59;;;7.01;100.00
20003;BME280;10162;41.600;23.806;2023-12-07T09:07:44;94878.09;;;7.25;100.00
20003;BME280;10162;41.600;23.806;2023-12-07T09:10:10;94889.56;;;6.86;100.00
20003;BME280;10162;41.600;23.806;2023-12-07T09:12:55;94884.91;;;6.96;100.00
20003;BME280;10162;41.600;23.806;2023-12-07T09:15:21;94866.63;;;6.75;100.00
20003;BME280;10162;41.600;23.806;2023-12-07T09:17:47;94862.88;;;7.07;100.00
20003;BME280;10162;41.600;23.806;2023-12-07T09:20:15;94860.44;;;6.91;100.00
20003;BME280;10162;41.600;23.806;2023-12-07T09:23:06;94876.41;;;6.88;100.00
20003;BME280;10162;41.600;23.806;2023-12-07T09:25:31;94862.16;;;6.98;100.00
20003;BME280;10162;41.600;23.806;2023-12-07T09:27:58;94861.63;;;7.03;100.00
20003;BME280;10162;41.600;23.806;2023-12-07T09:30:24;94854.72;;;7.25;100.00
20003;BME280;10162;41.600;23.806;2023-12-07T09:32:50;94827.56;;;7.13;100.00
20003;BME280;10162;41.600;23.806;2023-12-07T09:35:16;94864.09;;;7.55;100.00
20003;BME280;10162;41.600;23.806;2023-12-07T09:37:45;94831.03;;;7.20;100.00
20003;BME280;10162;41.600;23.806;2023-12-07T09:40:19;94813.81;;;7.19;100.00
20003;BME280;10162;41.600;23.806;2023-12-07T09:42:53;94826.69;;;7.56;100.00
20003;BME280;10162;41.600;23.806;2023-12-07T09:45:20;94826.53;;;7.43;100.00
20003;BME280;10162;41.600;23.806;2023-12-07T09:47:51;94856.53;;;7.60;100.00
20003;BME280;10162;41.600;23.806;2023-12-07T09:50:18;94852.00;;;7.83;100.00
20003;BME280;10162;41.600;23.806;2023-12-07T09:52:45;94855.34;;;7.77;100.00
20003;BME280;10162;41.600;23.806;2023-12-07T09:55:12;94837.84;;;7.71;100.00
20003;BME280;10162;41.600;23.806;2023-12-07T09:57:39;94838.84;;;7.70;100.00
20003;BME280;10162;41.600;23.806;2023-12-07T10:00:06;94839.41;;;7.66;100.00
20003;BME280;10162;41.600;23.806;2023-12-07T10:02:38;94831.19;;;7.83;100.00
20003;BME280;10162;41.600;23.806;2023-12-07T10:05:08;94841.09;;;7.95;100.00
20003;BME280;10162;41.600;23.806;2023-12-07T10:07:44;94834.41;;;8.07;100.00
20003;BME280;10162;41.600;23.806;2023-12-07T10:10:10;94820.53;;;8.00;100.00
20003;BME280;10162;41.600;23.806;2023-12-07T10:12:56;94838.56;;;8.22;100.00
20003;BME280;10162;41.600;23.806;2023-12-07T10:15:25;94824.16;;;8.26;100.00
20003;BME280;10162;41.600;23.806;2023-12-07T10:17:58;94836.75;;;8.44;100.00
20003;BME280;10162;41.600;23.806;2023-12-07T10:20:29;94800.63;;;7.92;100.00
20003;BME280;10162;41.600;23.806;2023-12-07T10:23:06;94816.38;;;8.05;100.00
20003;BME280;10162;41.600;23.806;2023-12-07T10:25:40;94817.53;;;8.45;100.00
20003;BME280;10162;41.600;23.806;2023-12-07T10:28:07;94799.06;;;8.68;100.00
20003;BME280;10162;41.600;23.806;2023-12-07T10:30:37;94822.66;;;8.60;100.00
20003;BME280;10162;41.600;23.806;2023-12-07T10:33:11;94801.09;;;8.73;100.00
20003;BME280;10162;41.600;23.806;2023-12-07T10:35:42;94804.13;;;8.76;100.00
20003;BME280;10162;41.600;23.806;2023-12-07T10:38:11;94807.03;;;8.94;100.00
20003;BME280;10162;41.600;23.806;2023-12-07T10:40:38;94801.81;;;8.88;100.00
20003;BME280;10162;41.600;23.806;2023-12-07T10:43:12;94806.25;;;9.00;100.00
20003;BME280;10162;41.600;23.806;2023-12-07T10:45:40;94787.38;;;9.33;100.00
20003;BME280;10162;41.600;23.806;2023-12-07T10:48:08;94792.56;;;9.26;100.00
20003;BME280;10162;41.600;23.806;2023-12-07T10:50:37;94791.16;;;9.30;100.00
20003;BME280;10162;41.600;23.806;2023-12-07T10:53:42;94806.19;;;9.22;100.00
20003;BME280;10162;41.600;23.806;2023-12-07T10:56:28;94796.03;;;8.99;100.00
20003;BME280;10162;41.600;23.806;2023-12-07T10:58:55;94778.16;;;9.43;100.00
20003;BME280;10162;41.600;23.806;2023-12-07T11:01:23;94772.28;;;9.22;100.00
20003;BME280;10162;41.600;23.806;2023-12-07T11:03:56;94784.25;;;9.09;100.00
20003;BME280;10162;41.600;23.806;2023-12-07T11:06:23;94761.22;;;9.20;100.00
20003;BME280;10162;41.600;23.806;2023-12-07T11:08:51;94779.31;;;9.28;100.00
20003;BME280;10162;41.600;23.806;2023-12-07T11:16:56;94766.97;;;8.67;100.00
20003;BME280;10162;41.600;23.806;2023-12-07T11:22:11;94745.47;;;9.00;100.00
20003;BME280;10162;41.600;23.806;2023-12-07T11:24:51;94760.97;;;9.08;100.00
20003;BME280;10162;41.600;23.806;2023-12-07T11:27:17;94763.06;;;8.85;100.00
20003;BME280;10162;41.600;23.806;2023-12-07T11:29:46;94755.72;;;9.01;100.00
20003;BME280;10162;41.600;23.806;2023-12-07T11:32:18;94744.44;;;8.88;100.00
20003;BME280;10162;41.600;23.806;2023-12-07T11:34:45;94748.97;;;9.13;100.00
20003;BME280;10162;41.600;23.806;2023-12-07T11:37:15;94751.81;;;9.25;100.00
20003;BME280;10162;41.600;23.806;2023-12-07T11:39:42;94737.31;;;9.09;100.00
20003;BME280;10162;41.600;23.806;2023-12-07T11:45:51;94742.06;;;9.53;100.00
20003;BME280;10162;41.600;23.806;2023-12-07T11:48:19;94736.09;;;9.79;100.00
20003;BME280;10162;41.600;23.806;2023-12-07T11:53:37;94728.97;;;9.40;100.00
20003;BME280;10162;41.600;23.806;2023-12-07T11:56:06;94714.78;;;9.69;100.00
20003;BME280;10162;41.600;23.806;2023-12-07T11:58:33;94706.94;;;9.49;100.00
20003;BME280;10162;41.600;23.806;2023-12-07T12:01:00;94718.38;;;9.68;100.00
20003;BME280;10162;41.600;23.806;2023-12-07T12:03:33;94723.41;;;9.70;100.00
20003;BME280;10162;41.600;23.806;2023-12-07T12:05:59;94720.63;;;9.71;100.00
20003;BME280;10162;41.600;23.806;2023-12-07T12:08:25;94719.84;;;9.84;100.00
20003;BME280;10162;41.600;23.806;2023-12-07T12:10:52;94731.88;;;9.72;100.00
20003;BME280;10162;41.600;23.806;2023-12-07T12:13:37;94724.66;;;9.74;100.00
20003;BME280;10162;41.600;23.806;2023-12-07T12:16:04;94689.69;;;9.68;100.00
20003;BME280;10162;41.600;23.806;2023-12-07T12:18:30;94714.22;;;9.74;100.00
20003;BME280;10162;41.600;23.806;2023-12-07T12:20:56;94712.97;;;9.57;100.00
20003;BME280;10162;41.600;23.806;2023-12-07T12:26:52;94702.53;;;9.57;100.00
20003;BME280;10162;41.600;23.806;2023-12-07T12:29:17;94703.69;;;9.41;100.00
20003;BME280;10162;41.600;23.806;2023-12-07T12:31:43;94694.47;;;9.51;100.00
20003;BME280;10162;41.600;23.806;2023-12-07T12:34:10;94696.50;;;9.49;100.00
20003;BME280;10162;41.600;23.806;2023-12-07T12:36:38;94696.47;;;9.43;100.00
20003;BME280;10162;41.600;23.806;2023-12-07T12:39:04;94689.44;;;9.37;100.00
20003;BME280;10162;41.600;23.806;2023-12-07T12:41:42;94698.88;;;9.31;100.00
20003;BME280;10162;41.600;23.806;2023-12-07T12:44:08;94688.81;;;9.22;100.00
20003;BME280;10162;41.600;23.806;2023-12-07T12:46:34;94691.38;;;9.08;100.00
20003;BME280;10162;41.600;23.806;2023-12-07T12:49:01;94693.81;;;9.23;100.00
20003;BME280;10162;41.600;23.806;2023-12-07T12:51:28;94698.41;;;9.15;100.00
20003;BME280;10162;41.600;23.806;2023-12-07T12:54:00;94710.50;;;9.35;100.00
20003;BME280;10162;41.600;23.806;2023-12-07T12:56:27;94702.50;;;9.37;100.00
20003;BME280;10162;41.600;23.806;2023-12-07T12:58:54;94680.16;;;9.15;100.00
20003;BME280;10162;41.600;23.806;2023-12-07T13:01:22;94699.47;;;9.33;100.00
20003;BME280;10162;41.600;23.806;2023-12-07T13:04:01;94699.47;;;9.27;100.00
20003;BME280;10162;41.600;23.806;2023-12-07T13:06:27;94694.25;;;9.27;100.00
20003;BME280;10162;41.600;23.806;2023-12-07T13:08:54;94681.69;;;8.96;100.00
20003;BME280;10162;41.600;23.806;2023-12-07T13:11:20;94682.66;;;8.82;100.00
20003;BME280;10162;41.600;23.806;2023-12-07T13:13:58;94699.81;;;9.10;100.00
20003;BME280;10162;41.600;23.806;2023-12-07T13:16:24;94685.75;;;9.11;100.00
20003;BME280;10162;41.600;23.806;2023-12-07T13:18:50;94707.09;;;9.28;100.00
20003;BME280;10162;41.600;23.806;2023-12-07T13:21:18;94708.09;;;9.27;100.00
20003;BME280;10162;41.600;23.806;2023-12-07T13:24:03;94706.41;;;9.06;100.00
20003;BME280;10162;41.600;23.806;2023-12-07T13:26:31;94705.75;;;8.91;100.00
20003;BME280;10162;41.600;23.806;2023-12-07T13:28:56;94700.63;;;9.11;100.00
20003;BME280;10162;41.600;23.806;2023-12-07T13:31:23;94712.06;;;9.17;100.00
20003;BME280;10162;41.600;23.806;2023-12-07T13:34:03;94711.84;;;9.11;100.00
20003;BME280;10162;41.600;23.806;2023-12-07T13:36:29;94699.97;;;9.02;100.00
20003;BME280;10162;41.600;23.806;2023-12-07T13:38:57;94700.50;;;8.85;100.00